sensor_id;sensor_type;location;lat;lon;timestamp;P1;durP1;ratioP1;P2;durP2;ratioP2
16669;SDS011;8448;52.034;5.158;2023-07-13T00:01:52;5.20;;;2.10;;
16669;SDS011;8448;52.034;5.158;2023-07-13T00:04:22;6.38;;;2.08;;
16669;SDS011;8448;52.034;5.158;2023-07-13T00:06:51;9.32;;;2.20;;
16669;SDS011;8448;52.034;5.158;2023-07-13T00:09:19;6.13;;;2.03;;
16669;SDS011;8448;52.034;5.158;2023-07-13T00:11:49;6.53;;;2.15;;
16669;SDS011;8448;52.034;5.158;2023-07-13T00:14:17;7.80;;;2.28;;
16669;SDS011;8448;52.034;5.158;2023-07-13T00:16:44;7.07;;;2.20;;
16669;SDS011;8448;52.034;5.158;2023-07-13T00:19:12;9.02;;;2.10;;
16669;SDS011;8448;52.034;5.158;2023-07-13T00:21:42;7.45;;;2.03;;
16669;SDS011;8448;52.034;5.158;2023-07-13T00:24:10;7.18;;;2.05;;
16669;SDS011;8448;52.034;5.158;2023-07-13T00:26:39;5.05;;;2.03;;
16669;SDS011;8448;52.034;5.158;2023-07-13T00:29:09;8.05;;;2.25;;
16669;SDS011;8448;52.034;5.158;2023-07-13T00:31:37;6.20;;;2.08;;
16669;SDS011;8448;52.034;5.158;2023-07-13T00:34:05;5.55;;;2.00;;
16669;SDS011;8448;52.034;5.158;2023-07-13T00:36:33;7.30;;;2.65;;
16669;SDS011;8448;52.034;5.158;2023-07-13T00:39:02;5.95;;;1.90;;
16669;SDS011;8448;52.034;5.158;2023-07-13T00:41:30;5.85;;;2.30;;
16669;SDS011;8448;52.034;5.158;2023-07-13T00:43:58;7.07;;;2.80;;
16669;SDS011;8448;52.034;5.158;2023-07-13T00:46:27;8.82;;;2.65;;
16669;SDS011;8448;52.034;5.158;2023-07-13T00:48:56;6.70;;;2.40;;
16669;SDS011;8448;52.034;5.158;2023-07-13T00:51:27;5.40;;;1.88;;
16669;SDS011;8448;52.034;5.158;2023-07-13T00:53:58;8.57;;;2.47;;
16669;SDS011;8448;52.034;5.158;2023-07-13T00:56:30;8.35;;;2.30;;
16669;SDS011;8448;52.034;5.158;2023-07-13T00:58:59;7.50;;;2.10;;
16669;SDS011;8448;52.034;5.158;2023-07-13T01:01:27;8.20;;;2.25;;
16669;SDS011;8448;52.034;5.158;2023-07-13T01:03:57;9.80;;;2.38;;
16669;SDS011;8448;52.034;5.158;2023-07-13T01:06:24;5.13;;;2.00;;
16669;SDS011;8448;52.034;5.158;2023-07-13T01:08:52;7.57;;;2.13;;
16669;SDS011;8448;52.034;5.158;2023-07-13T01:11:21;6.53;;;2.53;;
16669;SDS011;8448;52.034;5.158;2023-07-13T01:13:49;5.45;;;2.00;;
16669;SDS011;8448;52.034;5.158;2023-07-13T01:16:19;6.95;;;2.13;;
16669;SDS011;8448;52.034;5.158;2023-07-13T01:18:50;7.28;;;2.38;;
16669;SDS011;8448;52.034;5.158;2023-07-13T01:21:19;8.57;;;2.17;;
16669;SDS011;8448;52.034;5.158;2023-07-13T01:23:47;11.18;;;2.35;;
16669;SDS011;8448;52.034;5.158;2023-07-13T01:26:15;6.05;;;2.28;;
16669;SDS011;8448;52.034;5.158;2023-07-13T01:28:42;9.43;;;3.15;;
16669;SDS011;8448;52.034;5.158;2023-07-13T01:31:10;6.72;;;2.40;;
16669;SDS011;8448;52.034;5.158;2023-07-13T01:33:39;7.85;;;2.83;;
16669;SDS011;8448;52.034;5.158;2023-07-13T01:36:07;5.78;;;2.25;;
16669;SDS011;8448;52.034;5.158;2023-07-13T01:38:38;7.95;;;2.60;;
16669;SDS011;8448;52.034;5.158;2023-07-13T01:41:06;8.80;;;2.45;;
16669;SDS011;8448;52.034;5.158;2023-07-13T01:43:34;8.68;;;2.90;;
16669;SDS011;8448;52.034;5.158;2023-07-13T01:46:01;7.32;;;2.67;;
16669;SDS011;8448;52.034;5.158;2023-07-13T01:48:29;7.60;;;2.75;;
16669;SDS011;8448;52.034;5.158;2023-07-13T01:50:56;7.97;;;2.90;;
16669;SDS011;8448;52.034;5.158;2023-07-13T01:53:24;7.00;;;2.42;;
16669;SDS011;8448;52.034;5.158;2023-07-13T01:55:53;12.90;;;3.08;;
16669;SDS011;8448;52.034;5.158;2023-07-13T01:58:20;8.70;;;2.72;;
16669;SDS011;8448;52.034;5.158;2023-07-13T02:00:48;8.30;;;2.80;;
16669;SDS011;8448;52.034;5.158;2023-07-13T02:03:17;10.60;;;3.25;;
16669;SDS011;8448;52.034;5.158;2023-07-13T02:05:45;11.57;;;3.30;;
16669;SDS011;8448;52.034;5.158;2023-07-13T02:08:12;11.35;;;3.17;;
16669;SDS011;8448;52.034;5.158;2023-07-13T02:10:40;12.70;;;3.38;;
16669;SDS011;8448;52.034;5.158;2023-07-13T02:13:09;14.90;;;3.58;;
16669;SDS011;8448;52.034;5.158;2023-07-13T02:15:38;15.25;;;3.30;;
16669;SDS011;8448;52.034;5.158;2023-07-13T02:18:06;7.78;;;3.03;;
16669;SDS011;8448;52.034;5.158;2023-07-13T02:20:34;7.63;;;3.17;;
16669;SDS011;8448;52.034;5.158;2023-07-13T02:23:02;11.88;;;2.92;;
16669;SDS011;8448;52.034;5.158;2023-07-13T02:25:30;10.27;;;3.63;;
16669;SDS011;8448;52.034;5.158;2023-07-13T02:27:57;8.35;;;3.00;;
16669;SDS011;8448;52.034;5.158;2023-07-13T02:30:26;11.80;;;3.55;;
16669;SDS011;8448;52.034;5.158;2023-07-13T02:32:55;9.30;;;3.22;;
16669;SDS011;8448;52.034;5.158;2023-07-13T02:35:22;9.13;;;3.35;;
16669;SDS011;8448;52.034;5.158;2023-07-13T02:37:50;13.55;;;4.03;;
16669;SDS011;8448;52.034;5.158;2023-07-13T02:40:17;10.35;;;4.07;;
16669;SDS011;8448;52.034;5.158;2023-07-13T02:42:45;11.57;;;3.10;;
16669;SDS011;8448;52.034;5.158;2023-07-13T02:45:13;11.02;;;3.45;;
16669;SDS011;8448;52.034;5.158;2023-07-13T02:47:42;9.63;;;3.40;;
16669;SDS011;8448;52.034;5.158;2023-07-13T02:50:10;10.48;;;3.15;;
16669;SDS011;8448;52.034;5.158;2023-07-13T02:52:37;10.35;;;3.50;;
16669;SDS011;8448;52.034;5.158;2023-07-13T02:55:05;12.98;;;3.25;;
16669;SDS011;8448;52.034;5.158;2023-07-13T02:57:33;11.38;;;3.30;;
16669;SDS011;8448;52.034;5.158;2023-07-13T03:00:01;10.50;;;3.70;;
16669;SDS011;8448;52.034;5.158;2023-07-13T03:02:31;9.93;;;3.03;;
16669;SDS011;8448;52.034;5.158;2023-07-13T03:05:00;13.23;;;3.17;;
16669;SDS011;8448;52.034;5.158;2023-07-13T03:07:28;9.98;;;3.38;;
16669;SDS011;8448;52.034;5.158;2023-07-13T03:09:58;15.05;;;3.65;;
16669;SDS011;8448;52.034;5.158;2023-07-13T03:12:36;10.90;;;3.35;;
16669;SDS011;8448;52.034;5.158;2023-07-13T03:15:08;11.93;;;3.60;;
16669;SDS011;8448;52.034;5.158;2023-07-13T03:17:40;8.90;;;3.40;;
16669;SDS011;8448;52.034;5.158;2023-07-13T03:20:09;11.27;;;3.40;;
16669;SDS011;8448;52.034;5.158;2023-07-13T03:22:38;11.77;;;3.88;;
16669;SDS011;8448;52.034;5.158;2023-07-13T03:25:06;12.38;;;3.65;;
16669;SDS011;8448;52.034;5.158;2023-07-13T03:27:35;9.23;;;3.33;;
16669;SDS011;8448;52.034;5.158;2023-07-13T03:30:04;11.38;;;3.60;;
16669;SDS011;8448;52.034;5.158;2023-07-13T03:32:34;11.25;;;3.90;;
16669;SDS011;8448;52.034;5.158;2023-07-13T03:35:01;12.63;;;3.95;;
16669;SDS011;8448;52.034;5.158;2023-07-13T03:37:32;11.57;;;3.90;;
16669;SDS011;8448;52.034;5.158;2023-07-13T03:40:00;11.25;;;4.00;;
16669;SDS011;8448;52.034;5.158;2023-07-13T03:42:29;14.15;;;4.07;;
16669;SDS011;8448;52.034;5.158;2023-07-13T03:44:57;13.07;;;4.22;;
16669;SDS011;8448;52.034;5.158;2023-07-13T03:47:25;11.60;;;4.38;;
16669;SDS011;8448;52.034;5.158;2023-07-13T03:49:53;12.18;;;4.55;;
16669;SDS011;8448;52.034;5.158;2023-07-13T03:52:21;13.68;;;5.10;;
16669;SDS011;8448;52.034;5.158;2023-07-13T03:54:50;14.23;;;4.80;;
16669;SDS011;8448;52.034;5.158;2023-07-13T03:57:18;15.55;;;4.40;;
16669;SDS011;8448;52.034;5.158;2023-07-13T03:59:46;12.43;;;4.75;;
16669;SDS011;8448;52.034;5.158;2023-07-13T04:02:13;13.35;;;4.68;;
16669;SDS011;8448;52.034;5.158;2023-07-13T04:04:41;13.43;;;4.40;;
16669;SDS011;8448;52.034;5.158;2023-07-13T04:07:08;12.55;;;4.57;;
16669;SDS011;8448;52.034;5.158;2023-07-13T04:09:38;12.32;;;4.40;;
16669;SDS011;8448;52.034;5.158;2023-07-13T04:12:08;15.82;;;4.57;;
16669;SDS011;8448;52.034;5.158;2023-07-13T04:14:35;9.60;;;4.70;;
16669;SDS011;8448;52.034;5.158;2023-07-13T04:17:04;12.95;;;4.72;;
16669;SDS011;8448;52.034;5.158;2023-07-13T04:19:31;13.82;;;5.20;;
16669;SDS011;8448;52.034;5.158;2023-07-13T04:21:59;16.23;;;5.45;;
16669;SDS011;8448;52.034;5.158;2023-07-13T04:24:27;11.93;;;4.95;;
16669;SDS011;8448;52.034;5.158;2023-07-13T04:26:54;13.13;;;5.07;;
16669;SDS011;8448;52.034;5.158;2023-07-13T04:29:26;15.27;;;5.00;;
16669;SDS011;8448;52.034;5.158;2023-07-13T04:31:53;12.20;;;4.97;;
16669;SDS011;8448;52.034;5.158;2023-07-13T04:34:21;18.00;;;5.10;;
16669;SDS011;8448;52.034;5.158;2023-07-13T04:36:49;17.85;;;5.00;;
16669;SDS011;8448;52.034;5.158;2023-07-13T04:39:17;12.90;;;5.10;;
16669;SDS011;8448;52.034;5.158;2023-07-13T04:41:45;12.85;;;5.18;;
16669;SDS011;8448;52.034;5.158;2023-07-13T04:44:13;15.25;;;5.95;;
16669;SDS011;8448;52.034;5.158;2023-07-13T04:46:42;17.23;;;6.20;;
16669;SDS011;8448;52.034;5.158;2023-07-13T04:49:10;11.55;;;5.28;;
16669;SDS011;8448;52.034;5.158;2023-07-13T04:51:37;13.98;;;5.32;;
16669;SDS011;8448;52.034;5.158;2023-07-13T04:54:05;13.52;;;5.40;;
16669;SDS011;8448;52.034;5.158;2023-07-13T04:56:33;15.68;;;5.68;;
16669;SDS011;8448;52.034;5.158;2023-07-13T04:59:00;14.13;;;5.70;;
16669;SDS011;8448;52.034;5.158;2023-07-13T05:01:28;13.02;;;5.32;;
16669;SDS011;8448;52.034;5.158;2023-07-13T05:03:57;15.70;;;5.97;;
16669;SDS011;8448;52.034;5.158;2023-07-13T05:06:25;9.63;;;5.07;;
16669;SDS011;8448;52.034;5.158;2023-07-13T05:08:53;17.85;;;6.50;;
16669;SDS011;8448;52.034;5.158;2023-07-13T05:11:21;13.85;;;6.13;;
16669;SDS011;8448;52.034;5.158;2023-07-13T05:13:48;15.70;;;5.53;;
16669;SDS011;8448;52.034;5.158;2023-07-13T05:16:16;15.98;;;6.20;;
16669;SDS011;8448;52.034;5.158;2023-07-13T05:18:43;17.50;;;6.35;;
16669;SDS011;8448;52.034;5.158;2023-07-13T05:21:12;14.95;;;6.47;;
16669;SDS011;8448;52.034;5.158;2023-07-13T05:23:40;15.77;;;6.32;;
16669;SDS011;8448;52.034;5.158;2023-07-13T05:26:08;15.13;;;6.35;;
16669;SDS011;8448;52.034;5.158;2023-07-13T05:28:35;15.43;;;6.55;;
16669;SDS011;8448;52.034;5.158;2023-07-13T05:31:03;17.80;;;6.40;;
16669;SDS011;8448;52.034;5.158;2023-07-13T05:33:31;15.77;;;6.80;;
16669;SDS011;8448;52.034;5.158;2023-07-13T05:35:59;16.23;;;7.15;;
16669;SDS011;8448;52.034;5.158;2023-07-13T05:38:28;19.85;;;7.80;;
16669;SDS011;8448;52.034;5.158;2023-07-13T05:40:56;19.17;;;7.53;;
16669;SDS011;8448;52.034;5.158;2023-07-13T05:43:24;17.80;;;7.13;;
16669;SDS011;8448;52.034;5.158;2023-07-13T05:45:52;19.65;;;7.82;;
16669;SDS011;8448;52.034;5.158;2023-07-13T05:48:21;17.63;;;7.75;;
16669;SDS011;8448;52.034;5.158;2023-07-13T05:50:48;18.17;;;7.43;;
16669;SDS011;8448;52.034;5.158;2023-07-13T05:53:16;18.45;;;8.27;;
16669;SDS011;8448;52.034;5.158;2023-07-13T05:55:45;20.00;;;9.23;;
16669;SDS011;8448;52.034;5.158;2023-07-13T05:58:15;18.30;;;8.82;;
16669;SDS011;8448;52.034;5.158;2023-07-13T06:00:43;20.60;;;9.50;;
16669;SDS011;8448;52.034;5.158;2023-07-13T06:03:11;21.08;;;9.20;;
16669;SDS011;8448;52.034;5.158;2023-07-13T06:05:39;17.85;;;9.10;;
16669;SDS011;8448;52.034;5.158;2023-07-13T06:08:06;22.95;;;9.65;;
16669;SDS011;8448;52.034;5.158;2023-07-13T06:10:35;18.40;;;8.95;;
16669;SDS011;8448;52.034;5.158;2023-07-13T06:13:04;20.92;;;9.30;;
16669;SDS011;8448;52.034;5.158;2023-07-13T06:15:31;20.27;;;9.10;;
16669;SDS011;8448;52.034;5.158;2023-07-13T06:17:59;21.17;;;10.02;;
16669;SDS011;8448;52.034;5.158;2023-07-13T06:20:28;20.60;;;11.15;;
16669;SDS011;8448;52.034;5.158;2023-07-13T06:22:56;24.05;;;10.55;;
16669;SDS011;8448;52.034;5.158;2023-07-13T06:25:23;21.23;;;10.82;;
16669;SDS011;8448;52.034;5.158;2023-07-13T06:27:51;17.95;;;10.45;;
16669;SDS011;8448;52.034;5.158;2023-07-13T06:30:19;23.55;;;11.10;;
16669;SDS011;8448;52.034;5.158;2023-07-13T06:32:47;23.33;;;10.85;;
16669;SDS011;8448;52.034;5.158;2023-07-13T06:35:15;24.40;;;12.02;;
16669;SDS011;8448;52.034;5.158;2023-07-13T06:37:42;21.02;;;11.13;;
16669;SDS011;8448;52.034;5.158;2023-07-13T06:40:10;19.80;;;10.90;;
16669;SDS011;8448;52.034;5.158;2023-07-13T06:42:38;17.45;;;10.00;;
16669;SDS011;8448;52.034;5.158;2023-07-13T06:45:06;24.10;;;11.00;;
16669;SDS011;8448;52.034;5.158;2023-07-13T06:47:35;17.50;;;10.25;;
16669;SDS011;8448;52.034;5.158;2023-07-13T06:50:03;23.92;;;10.88;;
16669;SDS011;8448;52.034;5.158;2023-07-13T06:52:31;20.95;;;10.85;;
16669;SDS011;8448;52.034;5.158;2023-07-13T06:54:58;23.98;;;10.45;;
16669;SDS011;8448;52.034;5.158;2023-07-13T06:57:26;20.38;;;10.43;;
16669;SDS011;8448;52.034;5.158;2023-07-13T06:59:53;18.92;;;10.40;;
16669;SDS011;8448;52.034;5.158;2023-07-13T07:02:21;20.25;;;10.32;;
16669;SDS011;8448;52.034;5.158;2023-07-13T07:04:50;19.13;;;9.95;;
16669;SDS011;8448;52.034;5.158;2023-07-13T07:07:19;24.35;;;10.80;;
16669;SDS011;8448;52.034;5.158;2023-07-13T07:09:49;22.98;;;9.65;;
16669;SDS011;8448;52.034;5.158;2023-07-13T07:12:17;19.48;;;10.02;;
16669;SDS011;8448;52.034;5.158;2023-07-13T07:14:45;19.65;;;9.73;;
16669;SDS011;8448;52.034;5.158;2023-07-13T07:17:12;20.65;;;9.60;;
16669;SDS011;8448;52.034;5.158;2023-07-13T07:19:40;18.15;;;9.32;;
16669;SDS011;8448;52.034;5.158;2023-07-13T07:22:09;16.58;;;8.77;;
16669;SDS011;8448;52.034;5.158;2023-07-13T07:24:36;19.63;;;8.65;;
16669;SDS011;8448;52.034;5.158;2023-07-13T07:27:04;14.98;;;9.07;;
16669;SDS011;8448;52.034;5.158;2023-07-13T07:29:31;17.08;;;9.93;;
16669;SDS011;8448;52.034;5.158;2023-07-13T07:31:59;20.45;;;9.40;;
16669;SDS011;8448;52.034;5.158;2023-07-13T07:34:27;19.85;;;9.70;;
16669;SDS011;8448;52.034;5.158;2023-07-13T07:36:56;20.30;;;10.38;;
16669;SDS011;8448;52.034;5.158;2023-07-13T07:39:26;23.27;;;9.80;;
16669;SDS011;8448;52.034;5.158;2023-07-13T07:41:54;18.88;;;9.38;;
16669;SDS011;8448;52.034;5.158;2023-07-13T07:44:25;18.48;;;9.27;;
16669;SDS011;8448;52.034;5.158;2023-07-13T07:46:53;15.10;;;9.18;;
16669;SDS011;8448;52.034;5.158;2023-07-13T07:49:21;14.63;;;8.70;;
16669;SDS011;8448;52.034;5.158;2023-07-13T07:51:49;18.30;;;8.90;;
16669;SDS011;8448;52.034;5.158;2023-07-13T07:54:16;15.27;;;8.50;;
16669;SDS011;8448;52.034;5.158;2023-07-13T07:56:45;16.95;;;8.40;;
16669;SDS011;8448;52.034;5.158;2023-07-13T07:59:13;16.80;;;8.80;;
16669;SDS011;8448;52.034;5.158;2023-07-13T08:01:44;15.13;;;7.82;;
16669;SDS011;8448;52.034;5.158;2023-07-13T08:04:13;14.32;;;7.47;;
16669;SDS011;8448;52.034;5.158;2023-07-13T08:06:40;11.95;;;7.50;;
16669;SDS011;8448;52.034;5.158;2023-07-13T08:09:08;13.57;;;7.00;;
16669;SDS011;8448;52.034;5.158;2023-07-13T08:11:38;14.10;;;6.40;;
16669;SDS011;8448;52.034;5.158;2023-07-13T08:14:07;12.32;;;6.05;;
16669;SDS011;8448;52.034;5.158;2023-07-13T08:16:35;10.27;;;4.80;;
16669;SDS011;8448;52.034;5.158;2023-07-13T08:19:03;6.22;;;3.22;;
16669;SDS011;8448;52.034;5.158;2023-07-13T08:21:31;6.50;;;3.20;;
16669;SDS011;8448;52.034;5.158;2023-07-13T08:23:58;4.75;;;3.28;;
16669;SDS011;8448;52.034;5.158;2023-07-13T08:26:26;7.28;;;3.50;;
16669;SDS011;8448;52.034;5.158;2023-07-13T08:29:00;8.10;;;3.80;;
16669;SDS011;8448;52.034;5.158;2023-07-13T08:31:29;10.07;;;4.60;;
16669;SDS011;8448;52.034;5.158;2023-07-13T08:33:56;10.02;;;4.93;;
16669;SDS011;8448;52.034;5.158;2023-07-13T08:36:25;8.70;;;5.35;;
16669;SDS011;8448;52.034;5.158;2023-07-13T08:38:53;8.48;;;4.15;;
16669;SDS011;8448;52.034;5.158;2023-07-13T08:41:21;7.10;;;4.05;;
16669;SDS011;8448;52.034;5.158;2023-07-13T08:43:50;7.53;;;4.03;;
16669;SDS011;8448;52.034;5.158;2023-07-13T08:46:23;6.78;;;3.80;;
16669;SDS011;8448;52.034;5.158;2023-07-13T08:48:55;7.80;;;3.45;;
16669;SDS011;8448;52.034;5.158;2023-07-13T08:54:12;5.90;;;3.00;;
16669;SDS011;8448;52.034;5.158;2023-07-13T08:56:50;4.53;;;2.55;;
16669;SDS011;8448;52.034;5.158;2023-07-13T08:59:20;6.05;;;2.90;;
16669;SDS011;8448;52.034;5.158;2023-07-13T09:02:00;7.60;;;3.00;;
16669;SDS011;8448;52.034;5.158;2023-07-13T09:04:39;6.40;;;3.38;;
16669;SDS011;8448;52.034;5.158;2023-07-13T09:07:12;6.95;;;3.70;;
16669;SDS011;8448;52.034;5.158;2023-07-13T09:09:51;6.38;;;2.90;;
16669;SDS011;8448;52.034;5.158;2023-07-13T09:12:25;6.03;;;2.88;;
16669;SDS011;8448;52.034;5.158;2023-07-13T09:14:58;7.20;;;2.90;;
16669;SDS011;8448;52.034;5.158;2023-07-13T09:17:29;6.57;;;2.90;;
16669;SDS011;8448;52.034;5.158;2023-07-13T09:20:02;7.35;;;3.13;;
16669;SDS011;8448;52.034;5.158;2023-07-13T09:22:35;3.67;;;2.40;;
16669;SDS011;8448;52.034;5.158;2023-07-13T09:25:06;5.93;;;2.47;;
16669;SDS011;8448;52.034;5.158;2023-07-13T09:27:45;5.45;;;2.78;;
16669;SDS011;8448;52.034;5.158;2023-07-13T09:30:20;4.43;;;2.70;;
16669;SDS011;8448;52.034;5.158;2023-07-13T09:32:52;5.20;;;2.28;;
16669;SDS011;8448;52.034;5.158;2023-07-13T09:35:22;5.45;;;2.70;;
16669;SDS011;8448;52.034;5.158;2023-07-13T09:37:56;6.53;;;2.90;;
16669;SDS011;8448;52.034;5.158;2023-07-13T09:40:28;6.55;;;3.13;;
16669;SDS011;8448;52.034;5.158;2023-07-13T09:43:02;6.72;;;3.25;;
16669;SDS011;8448;52.034;5.158;2023-07-13T09:45:33;4.85;;;2.80;;
16669;SDS011;8448;52.034;5.158;2023-07-13T09:48:04;6.80;;;3.60;;
16669;SDS011;8448;52.034;5.158;2023-07-13T09:50:34;9.20;;;3.40;;
16669;SDS011;8448;52.034;5.158;2023-07-13T09:53:02;6.85;;;3.58;;
16669;SDS011;8448;52.034;5.158;2023-07-13T09:55:30;6.85;;;3.90;;
16669;SDS011;8448;52.034;5.158;2023-07-13T09:58:02;7.70;;;4.00;;
16669;SDS011;8448;52.034;5.158;2023-07-13T10:00:32;6.57;;;3.70;;
16669;SDS011;8448;52.034;5.158;2023-07-13T10:03:01;5.55;;;3.42;;
16669;SDS011;8448;52.034;5.158;2023-07-13T10:05:38;9.55;;;3.85;;
16669;SDS011;8448;52.034;5.158;2023-07-13T10:08:15;7.55;;;4.07;;
16669;SDS011;8448;52.034;5.158;2023-07-13T10:10:51;7.80;;;3.90;;
16669;SDS011;8448;52.034;5.158;2023-07-13T10:13:32;3.78;;;2.72;;
16669;SDS011;8448;52.034;5.158;2023-07-13T10:16:03;3.63;;;2.40;;
16669;SDS011;8448;52.034;5.158;2023-07-13T10:18:34;4.82;;;2.58;;
16669;SDS011;8448;52.034;5.158;2023-07-13T10:21:11;5.05;;;2.50;;
16669;SDS011;8448;52.034;5.158;2023-07-13T10:23:41;5.05;;;2.90;;
16669;SDS011;8448;52.034;5.158;2023-07-13T10:26:12;7.30;;;2.83;;
16669;SDS011;8448;52.034;5.158;2023-07-13T10:28:41;3.63;;;2.38;;
16669;SDS011;8448;52.034;5.158;2023-07-13T10:31:13;3.70;;;2.65;;
16669;SDS011;8448;52.034;5.158;2023-07-13T10:33:41;5.28;;;2.55;;
16669;SDS011;8448;52.034;5.158;2023-07-13T10:36:13;5.00;;;2.40;;
16669;SDS011;8448;52.034;5.158;2023-07-13T10:38:45;3.90;;;2.40;;
16669;SDS011;8448;52.034;5.158;2023-07-13T10:41:14;5.72;;;2.45;;
16669;SDS011;8448;52.034;5.158;2023-07-13T10:43:44;5.60;;;2.58;;
16669;SDS011;8448;52.034;5.158;2023-07-13T10:46:15;5.85;;;2.70;;
16669;SDS011;8448;52.034;5.158;2023-07-13T10:48:45;4.57;;;2.55;;
16669;SDS011;8448;52.034;5.158;2023-07-13T10:51:16;4.72;;;3.00;;
16669;SDS011;8448;52.034;5.158;2023-07-13T10:53:46;5.97;;;3.25;;
16669;SDS011;8448;52.034;5.158;2023-07-13T10:56:22;6.07;;;3.50;;
16669;SDS011;8448;52.034;5.158;2023-07-13T10:59:01;5.10;;;3.38;;
16669;SDS011;8448;52.034;5.158;2023-07-13T11:01:39;7.13;;;3.90;;
16669;SDS011;8448;52.034;5.158;2023-07-13T11:04:08;6.25;;;3.10;;
16669;SDS011;8448;52.034;5.158;2023-07-13T11:06:42;6.00;;;3.10;;
16669;SDS011;8448;52.034;5.158;2023-07-13T11:09:32;5.50;;;3.00;;
16669;SDS011;8448;52.034;5.158;2023-07-13T11:12:02;5.45;;;2.60;;
16669;SDS011;8448;52.034;5.158;2023-07-13T11:14:35;7.40;;;2.95;;
16669;SDS011;8448;52.034;5.158;2023-07-13T11:19:51;5.72;;;2.40;;
16669;SDS011;8448;52.034;5.158;2023-07-13T11:22:25;3.60;;;2.53;;
16669;SDS011;8448;52.034;5.158;2023-07-13T11:25:21;5.32;;;2.90;;
16669;SDS011;8448;52.034;5.158;2023-07-13T11:28:06;4.82;;;3.10;;
16669;SDS011;8448;52.034;5.158;2023-07-13T11:30:42;6.63;;;2.80;;
16669;SDS011;8448;52.034;5.158;2023-07-13T11:33:14;6.50;;;2.90;;
16669;SDS011;8448;52.034;5.158;2023-07-13T11:35:49;6.20;;;3.10;;
16669;SDS011;8448;52.034;5.158;2023-07-13T11:38:22;7.97;;;3.20;;
16669;SDS011;8448;52.034;5.158;2023-07-13T11:40:54;6.10;;;3.20;;
16669;SDS011;8448;52.034;5.158;2023-07-13T11:43:22;5.18;;;2.78;;
16669;SDS011;8448;52.034;5.158;2023-07-13T11:45:50;4.40;;;2.40;;
16669;SDS011;8448;52.034;5.158;2023-07-13T11:48:19;5.63;;;2.90;;
16669;SDS011;8448;52.034;5.158;2023-07-13T11:50:51;7.63;;;2.78;;
16669;SDS011;8448;52.034;5.158;2023-07-13T11:53:21;5.57;;;2.75;;
16669;SDS011;8448;52.034;5.158;2023-07-13T11:55:50;6.05;;;2.90;;
16669;SDS011;8448;52.034;5.158;2023-07-13T11:58:19;6.15;;;2.45;;
16669;SDS011;8448;52.034;5.158;2023-07-13T12:00:50;4.10;;;2.50;;
16669;SDS011;8448;52.034;5.158;2023-07-13T12:03:20;5.13;;;2.33;;
16669;SDS011;8448;52.034;5.158;2023-07-13T12:05:56;4.78;;;2.38;;
16669;SDS011;8448;52.034;5.158;2023-07-13T12:08:26;3.08;;;2.30;;
16669;SDS011;8448;52.034;5.158;2023-07-13T12:11:03;4.47;;;2.75;;
16669;SDS011;8448;52.034;5.158;2023-07-13T12:13:36;6.82;;;2.50;;
16669;SDS011;8448;52.034;5.158;2023-07-13T12:16:11;3.83;;;2.80;;
16669;SDS011;8448;52.034;5.158;2023-07-13T12:18:42;4.57;;;2.55;;
16669;SDS011;8448;52.034;5.158;2023-07-13T12:21:14;5.47;;;2.53;;
16669;SDS011;8448;52.034;5.158;2023-07-13T12:23:47;4.13;;;2.60;;
16669;SDS011;8448;52.034;5.158;2023-07-13T12:26:15;5.03;;;2.80;;
16669;SDS011;8448;52.034;5.158;2023-07-13T12:28:46;4.43;;;2.40;;
16669;SDS011;8448;52.034;5.158;2023-07-13T12:34:01;4.72;;;2.33;;
16669;SDS011;8448;52.034;5.158;2023-07-13T12:36:31;4.30;;;2.40;;
16669;SDS011;8448;52.034;5.158;2023-07-13T12:39:03;4.93;;;2.80;;
16669;SDS011;8448;52.034;5.158;2023-07-13T12:41:38;4.50;;;2.60;;
16669;SDS011;8448;52.034;5.158;2023-07-13T12:44:08;3.60;;;2.60;;
16669;SDS011;8448;52.034;5.158;2023-07-13T12:46:50;4.32;;;2.25;;
16669;SDS011;8448;52.034;5.158;2023-07-13T12:49:23;5.72;;;2.15;;
16669;SDS011;8448;52.034;5.158;2023-07-13T12:52:00;3.67;;;2.50;;
16669;SDS011;8448;52.034;5.158;2023-07-13T12:54:30;4.22;;;2.30;;
16669;SDS011;8448;52.034;5.158;2023-07-13T12:56:59;5.10;;;2.42;;
16669;SDS011;8448;52.034;5.158;2023-07-13T12:59:32;4.28;;;2.28;;
16669;SDS011;8448;52.034;5.158;2023-07-13T13:02:02;4.47;;;2.65;;
16669;SDS011;8448;52.034;5.158;2023-07-13T13:04:38;3.15;;;2.35;;
16669;SDS011;8448;52.034;5.158;2023-07-13T13:07:08;3.80;;;2.55;;
16669;SDS011;8448;52.034;5.158;2023-07-13T13:09:38;4.57;;;2.33;;
16669;SDS011;8448;52.034;5.158;2023-07-13T13:12:06;4.32;;;2.25;;
16669;SDS011;8448;52.034;5.158;2023-07-13T13:14:35;3.22;;;2.40;;
16669;SDS011;8448;52.034;5.158;2023-07-13T13:17:04;2.55;;;2.20;;
16669;SDS011;8448;52.034;5.158;2023-07-13T13:19:44;3.33;;;2.30;;
16669;SDS011;8448;52.034;5.158;2023-07-13T13:22:12;2.60;;;2.00;;
16669;SDS011;8448;52.034;5.158;2023-07-13T13:24:41;3.03;;;2.05;;
16669;SDS011;8448;52.034;5.158;2023-07-13T13:27:12;3.17;;;1.92;;
16669;SDS011;8448;52.034;5.158;2023-07-13T13:29:42;2.65;;;1.85;;
16669;SDS011;8448;52.034;5.158;2023-07-13T13:32:11;3.83;;;2.25;;
16669;SDS011;8448;52.034;5.158;2023-07-13T13:34:39;6.47;;;2.45;;
16669;SDS011;8448;52.034;5.158;2023-07-13T13:37:11;3.95;;;2.50;;
16669;SDS011;8448;52.034;5.158;2023-07-13T13:39:46;2.47;;;2.22;;
16669;SDS011;8448;52.034;5.158;2023-07-13T13:42:15;3.85;;;2.42;;
16669;SDS011;8448;52.034;5.158;2023-07-13T13:44:43;3.03;;;2.50;;
16669;SDS011;8448;52.034;5.158;2023-07-13T13:49:56;6.07;;;2.33;;
16669;SDS011;8448;52.034;5.158;2023-07-13T13:52:25;4.00;;;2.15;;
16669;SDS011;8448;52.034;5.158;2023-07-13T13:54:54;3.13;;;2.42;;
16669;SDS011;8448;52.034;5.158;2023-07-13T13:57:22;5.85;;;2.67;;
16669;SDS011;8448;52.034;5.158;2023-07-13T13:59:51;4.72;;;2.40;;
16669;SDS011;8448;52.034;5.158;2023-07-13T14:02:22;3.92;;;2.47;;
16669;SDS011;8448;52.034;5.158;2023-07-13T14:04:52;3.05;;;1.95;;
16669;SDS011;8448;52.034;5.158;2023-07-13T14:07:21;3.00;;;2.03;;
16669;SDS011;8448;52.034;5.158;2023-07-13T14:09:49;2.78;;;2.10;;
16669;SDS011;8448;52.034;5.158;2023-07-13T14:12:19;4.55;;;2.00;;
16669;SDS011;8448;52.034;5.158;2023-07-13T14:14:47;4.50;;;2.20;;
16669;SDS011;8448;52.034;5.158;2023-07-13T14:17:17;3.92;;;1.90;;
16669;SDS011;8448;52.034;5.158;2023-07-13T14:19:48;5.00;;;2.17;;
16669;SDS011;8448;52.034;5.158;2023-07-13T14:22:22;2.95;;;1.90;;
16669;SDS011;8448;52.034;5.158;2023-07-13T14:24:51;3.75;;;2.10;;
16669;SDS011;8448;52.034;5.158;2023-07-13T14:27:21;2.92;;;1.90;;
16669;SDS011;8448;52.034;5.158;2023-07-13T14:29:48;3.67;;;2.08;;
16669;SDS011;8448;52.034;5.158;2023-07-13T14:32:16;3.33;;;1.80;;
16669;SDS011;8448;52.034;5.158;2023-07-13T14:34:44;5.25;;;2.17;;
16669;SDS011;8448;52.034;5.158;2023-07-13T14:37:12;4.50;;;1.90;;
16669;SDS011;8448;52.034;5.158;2023-07-13T14:39:42;3.47;;;1.90;;
16669;SDS011;8448;52.034;5.158;2023-07-13T14:42:11;3.70;;;1.90;;
16669;SDS011;8448;52.034;5.158;2023-07-13T14:44:40;3.50;;;2.08;;
16669;SDS011;8448;52.034;5.158;2023-07-13T14:47:08;6.03;;;1.95;;
16669;SDS011;8448;52.034;5.158;2023-07-13T14:49:37;4.90;;;2.17;;
16669;SDS011;8448;52.034;5.158;2023-07-13T14:52:09;2.10;;;1.90;;
16669;SDS011;8448;52.034;5.158;2023-07-13T14:54:39;3.47;;;1.90;;
16669;SDS011;8448;52.034;5.158;2023-07-13T14:57:12;3.00;;;1.55;;
16669;SDS011;8448;52.034;5.158;2023-07-13T14:59:42;2.63;;;1.70;;
16669;SDS011;8448;52.034;5.158;2023-07-13T15:02:15;2.80;;;1.48;;
16669;SDS011;8448;52.034;5.158;2023-07-13T15:04:43;3.10;;;1.65;;
16669;SDS011;8448;52.034;5.158;2023-07-13T15:07:11;3.58;;;1.60;;
16669;SDS011;8448;52.034;5.158;2023-07-13T15:09:41;3.30;;;1.60;;
16669;SDS011;8448;52.034;5.158;2023-07-13T15:12:09;3.38;;;1.67;;
16669;SDS011;8448;52.034;5.158;2023-07-13T15:14:37;3.45;;;1.70;;
16669;SDS011;8448;52.034;5.158;2023-07-13T15:17:08;1.98;;;1.67;;
16669;SDS011;8448;52.034;5.158;2023-07-13T15:19:47;2.85;;;1.73;;
16669;SDS011;8448;52.034;5.158;2023-07-13T15:22:15;2.72;;;1.70;;